Time;durP1;ratioP1;P1;durP2;ratioP2;P2;SDS_P1;SDS_P2;PMS_P1;PMS_P2;Temp;Humidity;BMP_temperature;BMP_pressure;BME280_temperature;BME280_humidity;BME280_pressure;Samples;Min_cycle;Max_cycle;Signal;HPM_P1;HPM_P2
2022/07/06 00:01:33;;;;;;;3.22;1.95;;;;;;;22.01;64.57;100303.16;18619624;31;20346;-56
2022/07/06 00:11:36;;;;;;;5.40;2.42;;;;;;;21.62;66.36;100325.44;18561902;32;20115;-56
2022/07/06 00:21:41;;;;;;;4.43;2.10;;;;;;;21.23;68.02;100313.19;18560425;32;20099;-56
2022/07/06 00:31:44;;;;;;;5.22;2.30;;;;;;;21.40;67.47;100312.38;18561422;32;20110;-56
2022/07/06 00:41:49;;;;;;;6.20;2.30;;;;;;;21.33;67.25;100323.28;18548087;32;20100;-56
2022/07/06 00:51:52;;;;;;;3.25;1.90;;;;;;;21.64;65.41;100328.91;18560305;32;20114;-56
2022/07/06 01:01:56;;;;;;;4.35;2.30;;;;;;;21.88;64.33;100318.84;18559882;32;20088;-56
2022/07/06 01:12:00;;;;;;;3.75;2.00;;;;;;;21.49;65.48;100318.09;18559205;32;20095;-57
2022/07/06 01:22:04;;;;;;;3.58;1.95;;;;;;;21.52;65.22;100326.81;18558447;32;20081;-56
2022/07/06 01:32:08;;;;;;;4.07;1.98;;;;;;;21.33;65.54;100327.72;18560086;32;20118;-56
2022/07/06 01:42:12;;;;;;;3.83;2.03;;;;;;;21.54;64.54;100317.84;18566170;32;20149;-56
2022/07/06 01:52:16;;;;;;;2.72;1.83;;;;;;;21.24;65.57;100318.44;18565815;32;20088;-56
2022/07/06 02:02:21;;;;;;;4.82;2.08;;;;;;;21.11;65.51;100318.16;18565798;32;20804;-56
2022/07/06 02:12:24;;;;;;;2.45;1.77;;;;;;;21.00;65.74;100321.31;18565768;32;20092;-56
2022/07/06 02:22:29;;;;;;;4.93;2.10;;;;;;;20.88;66.58;100322.75;18565114;32;20106;-56
2022/07/06 02:32:32;;;;;;;2.80;1.85;;;;;;;20.72;66.35;100332.31;18564681;32;20141;-56
2022/07/06 02:42:37;;;;;;;3.22;1.90;;;;;;;20.93;65.23;100339.31;18549320;32;20123;-56
2022/07/06 02:52:40;;;;;;;3.12;1.50;;;;;;;21.00;64.82;100334.56;18564058;32;20096;-56
2022/07/06 03:02:45;;;;;;;2.53;1.50;;;;;;;21.11;64.41;100339.38;18563969;32;20104;-56
2022/07/06 03:12:48;;;;;;;2.53;1.60;;;;;;;21.62;61.66;100365.28;18563627;32;20088;-56
2022/07/06 03:22:52;;;;;;;2.60;1.67;;;;;;;21.31;63.90;100380.91;18563247;32;20106;-56
2022/07/06 03:32:56;;;;;;;3.00;1.60;;;;;;;21.30;64.13;100392.47;18564173;32;20096;-56
2022/07/06 03:43:00;;;;;;;3.17;1.80;;;;;;;21.96;61.71;100402.63;18563738;32;20077;-56
2022/07/06 03:53:03;;;;;;;3.40;1.95;;;;;;;21.60;63.31;100405.22;18562435;32;20375;-56
2022/07/06 04:03:09;;;;;;;4.72;2.33;;;;;;;21.68;62.66;100406.66;18548099;32;20088;-56
2022/07/06 04:13:12;;;;;;;4.00;1.80;;;;;;;21.79;61.70;100408.78;18562164;32;20148;-56
2022/07/06 04:23:17;;;;;;;5.28;1.92;;;;;;;22.43;60.58;100393.16;18561670;32;20120;-56
2022/07/06 04:33:20;;;;;;;3.60;2.12;;;;;;;23.23;58.83;100388.03;18561248;32;20456;-56
2022/07/06 04:43:25;;;;;;;2.85;1.90;;;;;;;23.67;57.67;100385.66;18560625;32;20096;-56
2022/07/06 04:53:28;;;;;;;3.90;1.75;;;;;;;23.63;56.56;100389.41;18560345;32;20088;-56
2022/07/06 05:03:35;;;;;;;2.65;1.67;;;;;;;24.35;55.07;100386.16;18559704;32;20092;-56
2022/07/06 05:13:38;;;;;;;2.53;1.73;;;;;;;23.70;55.53;100407.63;18606652;31;20087;-56
2022/07/06 05:23:42;;;;;;;3.05;1.77;;;;;;;24.64;52.87;100405.72;18623938;31;20095;-56
2022/07/06 05:33:46;;;;;;;2.40;1.70;;;;;;;24.90;51.12;100415.75;18590858;31;20452;-57
2022/07/06 05:43:50;;;;;;;4.18;1.92;;;;;;;25.46;51.11;100429.12;18583999;31;20112;-57
2022/07/06 05:53:54;;;;;;;4.03;2.05;;;;;;;25.64;49.36;100439.59;18601822;31;20096;-56
2022/07/06 06:03:59;;;;;;;3.92;2.10;;;;;;;25.94;49.59;100448.38;18586912;31;20105;-56
2022/07/06 06:14:02;;;;;;;3.05;1.83;;;;;;;26.38;46.09;100451.72;18573130;31;20092;-56
2022/07/06 06:24:08;;;;;;;2.15;1.60;;;;;;;26.13;47.37;100467.59;18562368;31;20111;-57
2022/07/06 06:34:11;;;;;;;3.30;1.77;;;;;;;26.33;46.42;100468.09;18568370;31;20092;-56
2022/07/06 06:44:15;;;;;;;3.22;1.70;;;;;;;26.27;45.87;100474.72;18566684;31;20645;-57
2022/07/06 06:54:18;;;;;;;4.97;2.42;;;;;;;26.88;45.84;100467.97;18592543;31;20485;-56
2022/07/06 07:04:23;;;;;;;5.65;2.22;;;;;;;26.94;46.26;100483.63;18625454;31;20089;-56
2022/07/06 07:14:27;;;;;;;2.33;1.65;;;;;;;27.23;45.04;100485.19;18628504;31;20096;-56
2022/07/06 07:24:32;;;;;;;4.68;2.30;;;;;;;27.95;43.38;100484.47;18623463;31;20094;-56
2022/07/06 07:34:35;;;;;;;3.67;1.77;;;;;;;28.16;43.42;100486.50;18625246;31;20103;-56
2022/07/06 07:44:41;;;;;;;2.30;1.50;;;;;;;28.74;41.82;100490.22;18592980;31;20490;-56
2022/07/06 07:54:44;;;;;;;2.87;1.70;;;;;;;28.86;40.27;100483.94;18562461;32;20094;-56
2022/07/06 08:05:01;;;;;;;3.12;1.60;;;;;;;29.01;40.03;100497.97;18563381;31;20100;-56
2022/07/06 08:15:05;;;;;;;4.90;2.00;;;;;;;29.29;37.64;100493.09;18561873;32;20100;-56
2022/07/06 08:25:11;;;;;;;2.42;1.60;;;;;;;28.65;38.91;100506.09;18561673;32;20114;-56
2022/07/06 08:35:14;;;;;;;3.05;1.65;;;;;;;29.55;37.07;100510.81;18561104;32;20095;-56
2022/07/06 08:45:19;;;;;;;2.95;1.80;;;;;;;29.79;36.57;100523.25;18559619;32;20110;-56
2022/07/06 08:55:22;;;;;;;3.15;1.87;;;;;;;30.36;35.92;100515.84;18561199;32;20114;-56
2022/07/06 09:05:27;;;;;;;4.47;2.10;;;;;;;30.28;35.67;100521.03;18560274;31;20088;-56
2022/07/06 09:15:30;;;;;;;4.53;2.17;;;;;;;30.15;37.06;100513.12;18609307;31;20807;-57
2022/07/06 09:25:36;;;;;;;3.35;1.90;;;;;;;30.57;35.21;100507.78;18588185;31;20431;-56
2022/07/06 09:35:40;;;;;;;4.53;2.03;;;;;;;31.30;33.27;100497.97;18609891;31;20092;-56
2022/07/06 09:45:51;;;;;;;3.65;1.80;;;;;;;31.48;32.04;100505.41;18622535;31;20354;-58
2022/07/06 09:55:57;;;;;;;5.12;2.10;;;;;;;32.64;29.28;100488.63;18555312;31;20140;-56
2022/07/06 10:06:02;;;;;;;6.85;1.85;;;;;;;32.42;30.57;100504.13;18551197;32;20155;-56
2022/07/06 10:16:06;;;;;;;3.47;1.50;;;;;;;32.48;28.62;100508.97;18565452;32;20115;-56
2022/07/06 10:26:10;;;;;;;3.47;1.90;;;;;;;32.32;28.28;100497.84;18550823;32;20104;-56
2022/07/06 10:36:25;;;;;;;2.95;1.70;;;;;;;33.53;25.45;100491.84;18550444;32;20088;-57
2022/07/06 10:46:39;;;;;;;3.72;1.90;;;;;;;33.27;24.80;100492.50;18554641;31;20119;-57
2022/07/06 10:56:46;;;;;;;3.60;1.73;;;;;;;33.28;24.93;100491.50;18594553;31;20081;-56
2022/07/06 11:06:53;;;;;;;3.60;1.73;;;;;;;33.78;24.49;100488.53;18562914;32;20103;-55
2022/07/06 11:17:04;;;;;;;5.37;1.70;;;;;;;34.11;23.58;100486.19;18598589;31;20102;-55
2022/07/06 11:27:09;;;;;;;5.72;1.75;;;;;;;34.31;20.25;100494.97;18628902;31;20117;-55
2022/07/06 11:37:14;;;;;;;2.58;1.40;;;;;;;34.24;20.81;100486.62;18622796;31;20096;-55
2022/07/06 11:47:20;;;;;;;3.47;1.40;;;;;;;34.26;19.52;100490.03;18562749;32;20107;-56
2022/07/06 11:57:27;;;;;;;3.10;1.60;;;;;;;33.07;20.34;100503.44;18547920;32;20091;-56
2022/07/06 12:07:32;;;;;;;4.53;1.60;;;;;;;32.25;22.76;100484.09;18562161;32;20165;-55
2022/07/06 12:17:36;;;;;;;2.42;1.52;;;;;;;32.42;22.32;100497.91;18561791;32;20162;-55
2022/07/06 12:27:40;;;;;;;3.00;1.75;;;;;;;33.27;20.02;100492.50;18559964;31;20111;-55
2022/07/06 12:37:56;;;;;;;3.15;1.80;;;;;;;34.08;19.10;100479.22;18559646;32;20115;-56
2022/07/06 12:48:01;;;;;;;4.28;1.90;;;;;;;34.24;20.29;100480.34;18562387;31;206858;-56
2022/07/06 12:58:04;;;;;;;3.75;1.95;;;;;;;34.47;19.86;100488.81;18559960;32;20096;-55
2022/07/06 13:08:09;;;;;;;3.97;2.00;;;;;;;33.28;22.24;100494.22;18560161;31;20385;-54
2022/07/06 13:18:12;;;;;;;3.28;1.80;;;;;;;33.68;21.33;100496.75;18560407;32;20088;-54
2022/07/06 13:28:17;;;;;;;5.68;2.20;;;;;;;33.38;20.83;100490.59;18595934;31;20114;-53
2022/07/06 13:38:21;;;;;;;6.57;2.03;;;;;;;33.08;23.90;100490.78;18577537;31;20118;-54
2022/07/06 13:48:25;;;;;;;3.50;2.10;;;;;;;33.33;23.82;100508.16;18566228;32;20716;-54
2022/07/06 13:58:29;;;;;;;4.95;2.33;;;;;;;33.61;22.40;100502.75;18568184;31;20110;-54
2022/07/06 14:08:33;;;;;;;4.37;2.12;;;;;;;32.71;23.49;100519.44;18626214;31;20147;-55
2022/07/06 14:18:36;;;;;;;4.53;2.08;;;;;;;32.83;24.28;100516.59;18625013;31;20076;-54
2022/07/06 14:28:41;;;;;;;3.40;1.83;;;;;;;32.57;22.98;100518.03;18630158;31;20123;-54
2022/07/06 14:38:44;;;;;;;3.40;1.80;;;;;;;32.47;22.61;100512.66;18623488;31;20103;-54
2022/07/06 14:48:49;;;;;;;1.65;0.95;;;;;;;32.12;23.21;100497.87;18629432;31;20095;-54
2022/07/06 14:58:53;;;;;;;1.90;1.30;;;;;;;32.14;21.24;100506.69;18607257;31;20141;-55
2022/07/06 15:09:17;;;;;;;2.22;1.40;;;;;;;32.01;21.62;100500.72;18617160;31;20106;-55
2022/07/06 15:19:21;;;;;;;1.30;0.90;;;;;;;31.82;22.96;100497.00;18625338;31;20098;-54
2022/07/06 15:29:26;;;;;;;1.60;1.17;;;;;;;31.51;22.47;100492.50;18627289;31;20092;-55
2022/07/06 15:39:29;;;;;;;3.60;1.00;;;;;;;31.67;21.71;100491.97;18622838;31;20110;-55
2022/07/06 15:49:34;;;;;;;1.40;0.90;;;;;;;31.33;22.35;100484.25;18627654;31;20108;-54
2022/07/06 15:59:37;;;;;;;2.08;1.12;;;;;;;31.06;22.05;100501.84;18615382;31;20463;-55
2022/07/06 16:09:41;;;;;;;2.05;1.00;;;;;;;30.48;23.58;100516.66;18567952;31;20118;-56
2022/07/06 16:19:45;;;;;;;1.30;1.02;;;;;;;30.46;23.31;100532.94;18579041;31;20146;-54
2022/07/06 16:29:57;;;;;;;1.23;1.10;;;;;;;30.29;24.41;100533.50;18558913;31;20111;-55
2022/07/06 16:40:00;;;;;;;2.72;1.40;;;;;;;30.18;23.83;100534.41;18554570;32;20157;-55
2022/07/06 16:50:06;;;;;;;3.00;1.45;;;;;;;29.86;24.49;100540.56;18582574;31;20402;-55
2022/07/06 17:00:10;;;;;;;1.80;1.40;;;;;;;29.74;24.92;100535.22;18625437;31;20111;-55
2022/07/06 17:10:15;;;;;;;2.53;1.48;;;;;;;29.59;25.55;100534.66;18576500;31;20118;-54
2022/07/06 17:20:18;;;;;;;2.42;1.30;;;;;;;29.26;26.34;100544.38;18560282;32;20107;-55
2022/07/06 17:30:25;;;;;;;3.72;1.20;;;;;;;29.17;26.36;100553.22;18564284;31;20466;-55
2022/07/06 17:40:28;;;;;;;2.17;1.10;;;;;;;28.93;26.36;100571.12;18604711;31;20092;-56
2022/07/06 17:50:33;;;;;;;1.15;1.02;;;;;;;28.96;25.76;100572.69;18620081;31;20107;-55
2022/07/06 18:00:39;;;;;;;2.37;1.00;;;;;;;28.75;25.83;100577.91;18573982;31;20120;-56
2022/07/06 18:10:43;;;;;;;1.50;0.77;;;;;;;28.39;25.82;100581.41;18569524;31;20126;-55
2022/07/06 18:20:48;;;;;;;1.50;1.00;;;;;;;28.16;25.82;100596.50;18581334;31;20111;-55
2022/07/06 18:30:53;;;;;;;2.28;1.12;;;;;;;27.84;26.61;100615.84;18587240;31;20097;-55
2022/07/06 18:40:57;;;;;;;0.95;0.85;;;;;;;27.62;27.02;100614.66;18627210;31;20100;-55
2022/07/06 18:51:02;;;;;;;2.30;0.90;;;;;;;27.54;27.81;100606.28;18630646;31;20119;-55
2022/07/06 19:01:05;;;;;;;1.60;1.15;;;;;;;27.28;28.09;100607.16;18614747;31;20096;-56
2022/07/06 19:11:10;;;;;;;2.58;1.27;;;;;;;26.95;28.85;100624.59;18601881;31;20077;-55
2022/07/06 19:21:20;;;;;;;3.53;1.60;;;;;;;26.59;29.63;100623.41;18557770;31;20124;-56
2022/07/06 19:31:25;;;;;;;1.33;0.98;;;;;;;26.14;30.39;100635.16;18561313;31;20088;-55
2022/07/06 19:41:28;;;;;;;2.87;1.30;;;;;;;26.02;30.26;100631.44;18561343;32;20085;-55
2022/07/06 19:51:33;;;;;;;1.42;1.05;;;;;;;25.90;31.81;100638.47;18561665;32;20081;-55
2022/07/06 20:01:37;;;;;;;1.65;1.05;;;;;;;25.21;34.39;100654.22;18561555;32;20170;-56
2022/07/06 20:11:42;;;;;;;2.80;1.20;;;;;;;24.96;33.63;100658.38;18561205;32;20098;-56
2022/07/06 20:21:46;;;;;;;5.00;1.10;;;;;;;25.07;31.81;100666.59;18561183;32;20092;-55
2022/07/06 20:31:50;;;;;;;1.85;1.08;;;;;;;25.10;32.38;100672.69;18559892;32;20112;-56
2022/07/06 20:41:54;;;;;;;2.80;1.25;;;;;;;24.74;34.19;100662.22;18558927;32;20588;-55
2022/07/06 20:51:58;;;;;;;1.87;0.98;;;;;;;24.37;34.33;100680.34;18559463;32;20153;-55
2022/07/06 21:02:02;;;;;;;1.83;0.85;;;;;;;24.20;35.49;100674.16;18559069;32;20101;-55
2022/07/06 21:12:08;;;;;;;1.90;1.00;;;;;;;24.59;32.83;100681.81;18558978;32;20088;-55
2022/07/06 21:22:11;;;;;;;1.25;0.98;;;;;;;24.53;33.73;100672.34;18563411;31;20096;-55
2022/07/06 21:32:16;;;;;;;2.33;1.05;;;;;;;24.82;33.29;100679.66;18623450;31;20122;-56
2022/07/06 21:42:19;;;;;;;2.15;1.00;;;;;;;24.11;36.04;100699.50;18593772;31;20103;-56
2022/07/06 21:52:24;;;;;;;0.82;0.82;;;;;;;24.02;35.95;100693.81;18593456;31;20100;-55
2022/07/06 22:02:27;;;;;;;1.98;1.08;;;;;;;23.66;37.30;100711.66;18616916;31;20360;-55
2022/07/06 22:12:32;;;;;;;2.72;1.17;;;;;;;23.52;37.52;100723.91;18630789;31;20099;-55
2022/07/06 22:22:35;;;;;;;2.80;1.27;;;;;;;23.24;38.99;100729.75;18616086;31;20095;-55
2022/07/06 22:32:40;;;;;;;1.73;1.23;;;;;;;22.81;40.91;100728.28;18630284;31;20084;-55
2022/07/06 22:42:43;;;;;;;2.08;1.30;;;;;;;22.41;42.33;100733.66;18629799;31;20365;-57
2022/07/06 22:52:47;;;;;;;2.37;1.40;;;;;;;22.15;43.64;100738.41;18617896;31;20110;-57
2022/07/06 23:02:50;;;;;;;2.33;1.40;;;;;;;21.66;44.84;100741.41;18606859;31;20152;-57
2022/07/06 23:12:55;;;;;;;2.65;1.50;;;;;;;21.62;46.22;100742.44;18549302;32;20092;-57
2022/07/06 23:22:58;;;;;;;2.37;1.48;;;;;;;21.58;46.45;100756.81;18563806;32;19995;-57
2022/07/06 23:33:03;;;;;;;3.20;1.40;;;;;;;21.29;46.44;100753.59;18573468;31;20096;-57
2022/07/06 23:43:06;;;;;;;1.40;1.25;;;;;;;20.84;47.20;100752.75;18549513;32;20084;-57
2022/07/06 23:53:10;;;;;;;2.50;1.42;;;;;;;20.60;47.57;100747.44;18562937;32;20096;-57
